Higginsport, OH (45131)

10:23 PM EDT on April 26, 2015 (GMT -0400)
Brooksville | | Change Station
CLOSE
Current Station
Personal Weather Station
Location: Brooksville, KY
Elevation: 912 ft
Nearby Weather Stations

Elev 912 ft 38.70 °N, 84.05 °W | Updated 1 minute ago

Clear
Clear
48.2 °F
Feels Like 48 °F
N
1.0
Wind Variable Wind from North
Gusts 3.0 mph

Today
High -- | Low -- °F
--% Chance of Precip.
Yesterday
High -- | Low -- °F
Precip. -- in
6:44 AM 8:23 PM
First Quarter, 60% visible
Pressure 29.90 in
Visibility 10.0 miles
Clouds Scattered Clouds 6000 ft
Windchill 48 °F
Dew Point 37 °F
Humidity 66%
Rainfall 0.02 in
Snow Depth Not available.
UV 0 out of 12
Pollen 9.90 out of 12
Air Quality Not available.
Flu Activity Regional
METAR KI69 270215Z AUTO 01005KT 10SM SCT060 10/00 A2990 RMK AO1

More Conditions Fewer Conditions

Pressure 29.90 in
Visibility 10.0 miles
Clouds Scattered Clouds 6000 ft
Windchill 48 °F
Dew Point 37 °F
Humidity 66%
Rainfall 0.02 in
Snow Depth Not available.
UV 0 out of 12
Pollen 9.90 out of 12
Air Quality Not available.
Flu Activity Regional
METAR KI69 270215Z AUTO 01005KT 10SM SCT060 10/00 A2990 RMK AO1

More Conditions Fewer Conditions

The full scope of the disaster following a powerful 7.8-magnitude earthquake in Nepal may not come into view for days, but global charities are already sending emergency aid. Click to see how you can help.

10-Day Weather Forecast

Almanac

Astronomy

Apr. 26, 2015 Rise Set
Actual Time
Civil Twilight
Nautical Twilight
Astronomical Twilight
Moon
Length of Visible Light
Length of Day
Tomorrow will be .
, % of the Moon is Illuminated

Today's Extremes

State Highs State Lows

Community

WunderPhotos

Upload Photos

1,817,204 photos uploaded!

WunderBlogs® & News

Nearby

Air Quality

  Air Quality AQ Index Pollutant
Not available.

Snow Depth

Station Depth Elevation

Earthquake Activity

City Distance Mag. Time & Date
Minimum magnitude displayed is 2.5.

Coastal Water Temperatures

Place Temperature

Stations

Nearby Weather Stations

Station Location Temp. Windchill Dew Point Humidity Wind Precip. Elev Updated Type